Terminal Aerodrome Forecast
Issued by NWS

Home | Current Version | Previous Version | Text Only | Print | Product List | Glossary On
Versions: 1 2 3 4 5 6 7 8 9 10 11 12 13 14 15 16 17 18 19
195
FTUS44 KBMX 182340
TAFTCL
TAF
KTCL 182340Z 1900/1924 20014G20KT P6SM SCT045 OVC080
     FM190030 21015G23KT P6SM VCTS OVC040CB
      TEMPO 1901/1902 25019G33KT 3SM TSRA BR OVC025CB
     FM190200 26015G26KT P6SM BKN035 OVC050
     FM190300 31014G23KT P6SM BKN050
     FM190800 33011KT P6SM SKC
     FM191500 34013G20KT P6SM SKC=

USA.gov is the U.S. government's official web portal to all federal, state and local government web resources and services.